Home   Weather   Australia   Cairns   Past weeks
Flag for Australia

Past Weather in Cairns, Queensland, Australia — Yesterday and Last 2 Weeks

Currently: 70 °F. Clear. (Weather station: Cairns Airport, Australia). See more current weather

Past Weather in Cairns — Graph

°F

Cairns Temperature Yesterday

Maximum temperature yesterday: 82 °F (at 11:30 am)
Minimum temperature yesterday: 64 °F (at 4:30 am)
Average temperature yesterday: 72 °F

High & Low Weather Summary for the Past Weeks

 TemperatureHumidityPressure
High84 °F (Aug 7, 12:00 pm)100% (Aug 6, 6:30 am)30.09 "Hg (Aug 6, 6:30 am)
Low61 °F (Aug 10, 4:00 am)48% (Aug 11, 2:00 pm)29.80 "Hg (Aug 6, 3:00 pm)
Average73 °F74%29.96 "Hg
* Reported Jul 31 6:00 pm — Aug 15 6:30 pm, Cairns. Weather by CustomWeather, © 2022

Note: Actual official high and low records may vary slightly from our data, if they occured in-between our weather recording intervals... More about our weather records

Cairns Weather History for the Previous 24 Hours

Scroll right to see more
 ConditionsComfort  
Time TempWeatherWind HumidityBarometerVisibility
6:30 pm
Mon, Aug 15
72 °FClear.6 mph69%29.86 "HgN/A
6:00 pm73 °FSunny.5 mph69%29.86 "HgN/A
5:30 pm73 °FScattered clouds.3 mph69%29.86 "HgN/A
5:00 pm77 °FPartly sunny.6 mph61%29.86 "HgN/A
4:30 pm79 °FSunny.7 mph58%29.83 "HgN/A
4:00 pm79 °FSunny.7 mph58%29.83 "HgN/A
3:30 pm81 °FSunny.8 mph54%29.83 "HgN/A
3:00 pm81 °FSunny.9 mph51%29.86 "HgN/A
2:30 pm81 °FSunny.10 mph54%29.86 "HgN/A
2:00 pm82 °FSunny.10 mph51%29.86 "HgN/A
1:30 pm82 °FSunny.10 mph51%29.89 "HgN/A
1:00 pm81 °FSunny.10 mph51%29.89 "HgN/A
12:30 pm82 °FScattered clouds.8 mph48%29.92 "HgN/A
12:00 pm81 °FScattered clouds.8 mph51%29.92 "HgN/A
11:30 am81 °FScattered clouds.7 mph51%29.95 "HgN/A
11:00 am79 °FSunny.8 mph58%29.95 "HgN/A
9:30 am77 °FPartly sunny.7 mph57%29.98 "HgN/A
9:00 am72 °FScattered clouds.7 mph69%29.98 "HgN/A
8:30 am72 °FSunny.8 mph69%29.95 "HgN/A
8:00 am68 °FSunny.2 mph83%29.95 "HgN/A
7:30 am66 °FSunny.12 mph83%29.95 "HgN/A
7:00 am64 °FSunny.6 mph88%29.95 "HgN/A
6:30 am63 °FClear.1 mph88%29.95 "HgN/A
6:00 am63 °FClear.3 mph94%29.92 "HgN/A
5:30 am66 °FClear.1 mph83%29.92 "HgN/A
4:30 am63 °FClear.1 mph94%29.92 "HgN/A
3:30 am66 °FClear.3 mph88%29.92 "HgN/A
3:00 am66 °FPassing clouds.6 mph88%29.92 "HgN/A
2:30 am66 °FClear.10 mph88%29.92 "HgN/A
2:00 am70 °FClear.6 mph73%29.92 "HgN/A
1:30 am68 °FClear.6 mph78%29.95 "HgN/A
1:00 am70 °FPassing clouds.8 mph73%29.95 "HgN/A
12:30 am70 °FPassing clouds.6 mph78%29.95 "HgN/A
12:00 am70 °FClear.7 mph73%29.95 "HgN/A
11:30 pm
Sun, Aug 14
70 °FClear.5 mph73%29.95 "HgN/A
10:30 pm70 °FClear.3 mph73%29.98 "HgN/A
10:00 pm70 °FPassing clouds.7 mph73%29.98 "HgN/A
9:30 pm70 °FClear.3 mph78%29.95 "HgN/A
9:00 pm70 °FClear.3 mph78%29.95 "HgN/A
8:30 pm70 °FPassing clouds.6 mph78%29.95 "HgN/A
8:00 pm72 °FClear.6 mph73%29.92 "HgN/A
Weather by CustomWeather, © 2022

See weather overview